createdAt,value
2023-02-09T00:04:51.297Z,6.47
2023-02-09T00:09:54.042Z,6.20
2023-02-09T00:14:56.686Z,6.15
2023-02-09T00:19:59.285Z,6.85
2023-02-09T00:25:01.935Z,6.90
2023-02-09T00:30:05.712Z,6.63
2023-02-09T00:35:08.561Z,6.75
2023-02-09T00:40:11.722Z,7.00
2023-02-09T00:45:15.276Z,6.68
2023-02-09T00:50:18.197Z,7.50
2023-02-09T00:55:21.158Z,7.70
2023-02-09T01:00:23.940Z,7.75
2023-02-09T01:05:26.593Z,7.50
2023-02-09T01:10:29.161Z,7.78
2023-02-09T01:15:31.901Z,7.78
2023-02-09T01:20:34.875Z,8.52
2023-02-09T01:25:37.903Z,8.13
2023-02-09T01:30:40.621Z,8.15
2023-02-09T01:35:43.287Z,8.52
2023-02-09T01:40:50.408Z,8.50
2023-02-09T01:45:57.002Z,8.05
2023-02-09T01:51:01.128Z,8.18
2023-02-09T01:56:16.999Z,9.02
2023-02-09T02:01:21.378Z,8.65
2023-02-09T02:06:24.131Z,8.70
2023-02-09T02:11:29.873Z,8.48
2023-02-09T02:16:59.277Z,9.70
2023-02-09T02:22:26.725Z,9.70
2023-02-09T02:27:59.673Z,9.60
2023-02-09T02:33:20.991Z,9.27
2023-02-09T02:38:42.575Z,8.90
2023-02-09T02:44:02.549Z,9.88
2023-02-09T02:49:36.262Z,10.13
2023-02-09T02:54:43.124Z,9.43
2023-02-09T02:59:55.708Z,9.43
2023-02-09T03:05:00.476Z,9.63
2023-02-09T03:10:23.182Z,10.32
2023-02-09T03:15:44.148Z,10.52
2023-02-09T03:21:16.127Z,9.20
2023-02-09T03:26:25.338Z,10.43
2023-02-09T03:31:29.149Z,10.23
2023-02-09T03:36:37.388Z,10.10
2023-02-09T03:41:39.956Z,9.45
2023-02-09T03:46:43.857Z,9.27
2023-02-09T03:51:46.506Z,9.27
2023-02-09T03:56:49.305Z,9.35
2023-02-09T04:01:53.777Z,10.50
2023-02-09T04:06:57.546Z,9.15
2023-02-09T04:12:00.112Z,9.05
2023-02-09T04:17:02.748Z,10.52
2023-02-09T04:22:05.352Z,10.65
2023-02-09T04:27:09.893Z,9.80
2023-02-09T04:32:12.521Z,10.20
2023-02-09T04:37:15.150Z,11.07
2023-02-09T04:42:17.727Z,10.57
2023-02-09T04:47:20.319Z,11.57
2023-02-09T04:52:23.260Z,9.68
2023-02-09T04:57:44.280Z,10.57
2023-02-09T05:02:46.889Z,10.73
2023-02-09T05:07:49.491Z,9.75
2023-02-09T05:12:52.617Z,12.88
2023-02-09T05:17:55.248Z,13.02
2023-02-09T05:22:57.823Z,11.85
2023-02-09T05:28:00.651Z,10.95
2023-02-09T05:33:03.449Z,11.68
2023-02-09T05:38:06.129Z,12.48
2023-02-09T05:43:08.912Z,11.93
2023-02-09T05:48:11.559Z,11.88
2023-02-09T05:53:15.258Z,12.07
2023-02-09T05:58:17.909Z,11.80
2023-02-09T06:03:20.772Z,11.23
2023-02-09T06:08:23.559Z,12.10
2023-02-09T06:13:26.109Z,12.07
2023-02-09T06:18:28.768Z,11.48
2023-02-09T06:23:31.392Z,10.77
2023-02-09T06:28:34.113Z,10.52
2023-02-09T06:33:37.927Z,10.43
2023-02-09T06:38:40.556Z,10.43
2023-02-09T06:43:43.147Z,10.63
2023-02-09T06:48:45.737Z,10.68
2023-02-09T06:53:48.684Z,9.90
2023-02-09T06:58:51.383Z,12.18
2023-02-09T07:03:53.964Z,10.38
2023-02-09T07:08:56.819Z,10.88
2023-02-09T07:13:59.722Z,10.02
2023-02-09T07:19:02.434Z,10.38
2023-02-09T07:24:05.449Z,10.48
2023-02-09T07:29:08.112Z,10.30
2023-02-09T07:34:10.755Z,10.90
2023-02-09T07:39:13.345Z,9.45
2023-02-09T07:44:15.998Z,10.23
2023-02-09T07:49:18.655Z,10.10
2023-02-09T07:54:21.711Z,10.25
2023-02-09T07:59:24.344Z,9.60
2023-02-09T08:04:27.034Z,9.32
2023-02-09T08:09:29.656Z,8.40
2023-02-09T08:14:43.074Z,9.00
2023-02-09T08:19:49.507Z,8.60
2023-02-09T08:24:52.854Z,8.35
2023-02-09T08:29:55.478Z,10.80
2023-02-09T08:34:58.090Z,9.00
2023-02-09T08:40:00.659Z,8.93
2023-02-09T08:45:03.368Z,7.40
2023-02-09T08:50:06.549Z,7.88
2023-02-09T08:55:09.330Z,7.35
2023-02-09T09:00:13.008Z,9.13
2023-02-09T09:05:15.875Z,9.07
2023-02-09T09:10:18.622Z,9.38
2023-02-09T09:15:21.615Z,9.05
2023-02-09T09:20:24.273Z,13.82
2023-02-09T09:25:26.874Z,8.43
2023-02-09T09:30:29.517Z,9.18
2023-02-09T09:35:32.405Z,8.30
2023-02-09T09:40:40.534Z,8.38
2023-02-09T09:45:43.195Z,8.25
2023-02-09T09:50:46.878Z,9.27
2023-02-09T09:55:55.276Z,8.50
2023-02-09T10:00:58.740Z,8.18
2023-02-09T10:06:14.025Z,8.02
2023-02-09T10:11:20.425Z,7.80
2023-02-09T10:16:29.233Z,8.75
2023-02-09T10:21:36.173Z,8.77
2023-02-09T10:26:40.771Z,8.02
2023-02-09T10:32:03.507Z,8.32
2023-02-09T10:37:18.186Z,7.93
2023-02-09T10:42:29.490Z,8.77
2023-02-09T10:47:32.465Z,7.22
2023-02-09T10:52:37.399Z,6.72
2023-02-09T10:57:39.971Z,7.55
2023-02-09T11:02:54.166Z,8.15
2023-02-09T11:08:06.326Z,7.47
2023-02-09T11:13:19.854Z,6.95
2023-02-09T11:18:26.895Z,10.15
2023-02-09T11:23:49.801Z,9.10
2023-02-09T11:29:32.700Z,17.05
2023-02-09T11:35:02.548Z,8.95
2023-02-09T11:40:22.864Z,6.65
2023-02-09T11:45:52.382Z,6.40
2023-02-09T11:51:08.089Z,7.47
2023-02-09T11:56:17.725Z,7.20
2023-02-09T12:01:22.933Z,6.18
2023-02-09T12:06:27.693Z,5.72
2023-02-09T12:12:09.440Z,4.18
2023-02-09T12:17:15.493Z,3.65
2023-02-09T12:22:33.291Z,4.00
2023-02-09T12:27:38.995Z,3.90
2023-02-09T12:32:44.186Z,3.38
2023-02-09T12:38:27.330Z,3.10
2023-02-09T12:43:31.876Z,9.20
2023-02-09T12:48:34.586Z,4.70
2023-02-09T12:53:46.008Z,5.95
2023-02-09T12:58:48.573Z,4.88
2023-02-09T13:04:03.322Z,5.85
2023-02-09T13:09:13.725Z,4.50
2023-02-09T13:14:18.069Z,4.15
2023-02-09T13:19:53.110Z,4.07
2023-02-09T13:25:38.710Z,4.05
2023-02-09T13:30:41.762Z,4.72
2023-02-09T13:36:24.498Z,5.22
2023-02-09T13:41:40.754Z,4.75
2023-02-09T13:46:52.454Z,5.65
2023-02-09T13:52:21.175Z,5.35
2023-02-09T13:57:32.097Z,5.10
2023-02-09T14:02:36.296Z,5.07
2023-02-09T14:07:39.236Z,5.40
2023-02-09T14:12:56.075Z,5.32
2023-02-09T14:17:59.004Z,5.50
2023-02-09T14:23:02.130Z,5.75
2023-02-09T14:28:05.399Z,5.78
2023-02-09T14:33:24.537Z,5.53
2023-02-09T14:38:39.458Z,6.40
2023-02-09T14:43:42.094Z,5.97
2023-02-09T14:48:44.663Z,6.28
2023-02-09T14:53:47.311Z,5.72
2023-02-09T14:58:49.918Z,6.28
2023-02-09T15:03:52.609Z,5.57
2023-02-09T15:08:55.371Z,6.25
2023-02-09T15:14:04.147Z,6.55
2023-02-09T15:19:17.238Z,5.75
2023-02-09T15:24:20.022Z,6.75
2023-02-09T15:29:25.820Z,6.95
2023-02-09T15:34:28.410Z,6.38
2023-02-09T15:39:31.654Z,7.05
2023-02-09T15:44:52.645Z,6.63
2023-02-09T15:49:55.335Z,6.63
2023-02-09T15:54:58.012Z,6.68
2023-02-09T16:00:00.678Z,6.30
2023-02-09T16:05:03.320Z,5.70
2023-02-09T16:10:13.210Z,6.75
2023-02-09T16:15:24.206Z,4.90
2023-02-09T16:20:28.171Z,5.40
2023-02-09T16:25:30.800Z,4.72
2023-02-09T16:30:37.712Z,4.20
2023-02-09T16:35:40.512Z,4.30
2023-02-09T16:40:43.264Z,4.90
2023-02-09T16:46:00.873Z,5.97
2023-02-09T16:51:06.382Z,4.80
2023-02-09T16:56:13.194Z,4.60
2023-02-09T17:01:21.587Z,4.25
2023-02-09T17:06:30.230Z,4.32
2023-02-09T17:11:33.390Z,4.15
2023-02-09T17:16:39.947Z,4.43
2023-02-09T17:21:42.928Z,4.18
2023-02-09T17:26:48.225Z,4.65
2023-02-09T17:31:53.483Z,4.40
2023-02-09T17:37:00.794Z,5.03
2023-02-09T17:42:03.607Z,8.13
2023-02-09T17:47:10.110Z,6.35
2023-02-09T17:52:24.332Z,5.47
2023-02-09T17:57:27.709Z,4.13
2023-02-09T18:02:31.011Z,4.32
2023-02-09T18:07:35.618Z,5.40
2023-02-09T18:12:39.394Z,5.05
2023-02-09T18:17:46.198Z,5.60
2023-02-09T18:22:57.938Z,5.25
2023-02-09T18:28:01.593Z,5.35
2023-02-09T18:33:10.648Z,5.18
2023-02-09T18:38:53.625Z,4.60
2023-02-09T18:44:00.850Z,5.10
2023-02-09T18:49:06.115Z,4.15
2023-02-09T18:54:12.944Z,4.90
2023-02-09T18:59:17.853Z,5.03
2023-02-09T19:04:20.512Z,5.35
2023-02-09T19:09:23.213Z,4.60
2023-02-09T19:14:38.008Z,5.45
2023-02-09T19:19:41.513Z,5.55
2023-02-09T19:24:47.546Z,4.80
2023-02-09T19:30:30.530Z,5.00
2023-02-09T19:35:34.044Z,5.63
2023-02-09T19:41:10.734Z,5.22
2023-02-09T19:46:36.667Z,5.07
2023-02-09T19:51:39.444Z,4.05
2023-02-09T19:57:06.496Z,4.07
2023-02-09T20:02:12.639Z,10.65
2023-02-09T20:07:15.465Z,7.22
2023-02-09T20:12:19.474Z,5.32
2023-02-09T20:17:22.140Z,4.97
2023-02-09T20:22:26.593Z,4.32
2023-02-09T20:27:33.055Z,4.22
2023-02-09T20:32:36.849Z,3.70
2023-02-09T20:37:45.392Z,4.80
2023-02-09T20:43:08.814Z,5.72
2023-02-09T20:48:24.095Z,5.22
2023-02-09T20:53:26.775Z,5.03
2023-02-09T20:58:29.389Z,4.38
2023-02-09T21:03:32.006Z,3.83
2023-02-09T21:08:37.198Z,4.25
2023-02-09T21:13:41.268Z,4.05
2023-02-09T21:18:45.792Z,4.70
2023-02-09T21:23:48.550Z,4.32
2023-02-09T21:28:56.144Z,4.28
2023-02-09T21:33:58.734Z,4.30
2023-02-09T21:39:01.244Z,9.15
2023-02-09T21:44:04.982Z,5.38
2023-02-09T21:49:07.931Z,5.10
2023-02-09T21:54:15.730Z,5.35
2023-02-09T21:59:18.414Z,5.40
2023-02-09T22:04:21.527Z,4.68
2023-02-09T22:09:25.191Z,4.40
2023-02-09T22:14:28.936Z,4.07
2023-02-09T22:19:31.702Z,4.10
2023-02-09T22:24:34.967Z,4.65
2023-02-09T22:29:37.690Z,4.20
2023-02-09T22:34:40.250Z,4.28
2023-02-09T22:39:45.009Z,5.07
2023-02-09T22:44:48.072Z,4.10
2023-02-09T22:49:50.754Z,4.47
2023-02-09T22:54:53.301Z,5.07
2023-02-09T22:59:56.068Z,4.55
2023-02-09T23:04:58.640Z,4.75
2023-02-09T23:10:01.266Z,4.60
2023-02-09T23:15:06.110Z,4.50
2023-02-09T23:20:09.057Z,4.13
2023-02-09T23:25:11.589Z,4.60
2023-02-09T23:30:15.407Z,5.35
2023-02-09T23:35:18.064Z,5.22
2023-02-09T23:40:20.633Z,5.70
2023-02-09T23:45:23.450Z,5.38
2023-02-09T23:50:26.470Z,5.18
2023-02-09T23:55:29.167Z,5.57
